createdAt,value
2019-02-12T00:00:26.134Z,1.13
2019-02-12T00:02:54.874Z,2.17
2019-02-12T00:05:23.783Z,0.90
2019-02-12T00:07:52.734Z,1.37
2019-02-12T00:10:21.443Z,1.23
2019-02-12T00:12:50.178Z,0.90
2019-02-12T00:15:18.884Z,0.60
2019-02-12T00:17:47.533Z,1.02
2019-02-12T00:20:16.189Z,1.50
2019-02-12T00:22:45.321Z,1.43
2019-02-12T00:25:14.040Z,0.43
2019-02-12T00:27:43.635Z,1.13
2019-02-12T00:30:12.570Z,0.87
2019-02-12T00:32:41.263Z,1.20
2019-02-12T00:35:09.920Z,1.30
2019-02-12T00:37:38.611Z,1.00
2019-02-12T00:40:07.674Z,1.07
2019-02-12T00:42:36.370Z,1.23
2019-02-12T00:45:05.541Z,1.57
2019-02-12T00:47:36.582Z,1.50
2019-02-12T00:50:05.810Z,1.40
2019-02-12T00:52:36.270Z,1.87
2019-02-12T00:55:06.361Z,1.25
2019-02-12T00:57:35.275Z,1.10
2019-02-12T01:00:05.108Z,1.47
2019-02-12T01:02:33.978Z,1.30
2019-02-12T01:05:04.361Z,1.07
2019-02-12T01:07:33.264Z,1.63
2019-02-12T01:10:02.232Z,1.40
2019-02-12T01:12:31.636Z,0.75
2019-02-12T01:15:00.329Z,1.07
2019-02-12T01:17:29.223Z,1.27
2019-02-12T01:19:57.903Z,1.73
2019-02-12T01:22:26.591Z,1.00
2019-02-12T01:24:55.305Z,1.10
2019-02-12T01:27:26.385Z,1.20
2019-02-12T01:29:55.069Z,1.00
2019-02-12T01:32:24.175Z,1.17
2019-02-12T01:34:53.119Z,1.17
2019-02-12T01:37:22.415Z,1.33
2019-02-12T01:39:51.315Z,0.83
2019-02-12T01:42:20.351Z,1.20
2019-02-12T01:44:49.402Z,0.80
2019-02-12T01:47:19.715Z,0.77
2019-02-12T01:49:48.559Z,1.00
2019-02-12T01:52:17.257Z,0.97
2019-02-12T01:54:46.249Z,1.17
2019-02-12T01:57:15.006Z,0.77
2019-02-12T01:59:43.958Z,0.80
2019-02-12T02:02:13.126Z,0.97
2019-02-12T02:04:41.828Z,0.90
2019-02-12T02:07:12.515Z,1.43
2019-02-12T02:09:41.189Z,0.57
2019-02-12T02:12:13.342Z,1.10
2019-02-12T02:14:42.276Z,1.13
2019-02-12T02:17:11.413Z,1.13
2019-02-12T02:19:40.888Z,0.77
2019-02-12T02:22:10.794Z,1.37
2019-02-12T02:24:40.022Z,1.27
2019-02-12T02:27:08.742Z,0.80
2019-02-12T02:29:37.900Z,1.03
2019-02-12T02:32:06.834Z,1.30
2019-02-12T02:34:36.155Z,0.67
2019-02-12T02:37:05.130Z,0.87
2019-02-12T02:39:33.834Z,0.77
2019-02-12T02:42:02.809Z,1.13
2019-02-12T02:44:31.587Z,1.00
2019-02-12T02:47:00.259Z,1.15
2019-02-12T02:49:28.906Z,1.40
2019-02-12T02:51:57.582Z,0.90
2019-02-12T02:54:26.258Z,1.60
2019-02-12T02:56:55.011Z,1.27
2019-02-12T02:59:23.957Z,1.00
2019-02-12T03:01:52.921Z,1.10
2019-02-12T03:04:22.434Z,1.10
2019-02-12T03:06:51.236Z,1.57
2019-02-12T03:09:20.127Z,1.70
2019-02-12T03:11:49.349Z,1.27
2019-02-12T03:14:18.282Z,1.43
2019-02-12T03:16:46.944Z,1.73
2019-02-12T03:19:15.883Z,0.93
2019-02-12T03:21:44.818Z,0.70
2019-02-12T03:24:13.616Z,0.90
2019-02-12T03:26:42.602Z,0.60
2019-02-12T03:29:11.358Z,1.53
2019-02-12T03:31:40.244Z,1.17
2019-02-12T03:34:09.656Z,1.07
2019-02-12T03:36:39.364Z,0.90
2019-02-12T03:39:08.047Z,1.30
2019-02-12T03:41:37.178Z,1.00
2019-02-12T03:44:06.102Z,1.37
2019-02-12T03:46:34.790Z,1.40
2019-02-12T03:49:03.473Z,0.80
2019-02-12T03:51:32.163Z,0.57
2019-02-12T03:54:01.050Z,1.00
2019-02-12T03:56:29.941Z,2.20
2019-02-12T03:58:58.640Z,0.73
2019-02-12T04:01:28.508Z,1.10
2019-02-12T04:03:57.272Z,0.77
2019-02-12T04:06:26.275Z,0.80
2019-02-12T04:08:55.180Z,1.20
2019-02-12T04:11:24.376Z,1.20
2019-02-12T04:13:53.468Z,0.63
2019-02-12T04:16:22.346Z,0.77
2019-02-12T04:18:51.270Z,0.90
2019-02-12T04:21:20.215Z,1.00
2019-02-12T04:23:49.166Z,1.33
2019-02-12T04:26:18.598Z,0.50
2019-02-12T04:28:47.541Z,0.57
2019-02-12T04:31:16.235Z,0.80
2019-02-12T04:33:44.964Z,0.53
2019-02-12T04:36:14.314Z,0.53
2019-02-12T04:38:43.271Z,0.80
2019-02-12T04:41:12.311Z,1.00
2019-02-12T04:43:41.256Z,0.70
2019-02-12T04:46:09.933Z,1.07
2019-02-12T04:48:39.052Z,1.10
2019-02-12T04:51:07.753Z,0.63
2019-02-12T04:53:36.446Z,0.93
2019-02-12T04:56:05.198Z,1.17
2019-02-12T04:58:33.974Z,0.40
2019-02-12T05:01:02.704Z,0.97
2019-02-12T05:03:31.844Z,0.77
2019-02-12T05:06:00.518Z,1.23
2019-02-12T05:08:58.466Z,0.90
2019-02-12T05:11:27.150Z,1.10
2019-02-12T05:13:56.072Z,0.90
2019-02-12T05:16:25.059Z,0.63
2019-02-12T05:18:53.746Z,0.90
2019-02-12T05:21:22.531Z,1.17
2019-02-12T05:23:51.255Z,0.97
2019-02-12T05:26:20.026Z,0.70
2019-02-12T05:28:48.767Z,0.43
2019-02-12T05:31:17.921Z,0.67
2019-02-12T05:33:46.854Z,0.93
2019-02-12T05:36:15.534Z,0.93
2019-02-12T05:38:44.214Z,0.93
2019-02-12T05:41:13.430Z,1.03
2019-02-12T05:43:42.787Z,0.93
2019-02-12T05:46:11.713Z,0.40
2019-02-12T05:48:40.394Z,0.93
2019-02-12T05:51:09.348Z,0.60
2019-02-12T05:53:38.089Z,0.50
2019-02-12T05:56:07.266Z,0.73
2019-02-12T05:58:36.190Z,0.73
2019-02-12T06:01:04.995Z,1.13
2019-02-12T06:03:33.745Z,0.73
2019-02-12T06:06:03.016Z,0.93
2019-02-12T06:08:31.839Z,1.13
2019-02-12T06:11:00.836Z,0.57
2019-02-12T06:13:29.875Z,1.23
2019-02-12T06:15:59.062Z,1.43
2019-02-12T06:18:27.799Z,1.70
2019-02-12T06:20:56.494Z,1.07
2019-02-12T06:23:25.168Z,1.10
2019-02-12T06:25:54.387Z,1.40
2019-02-12T06:28:23.160Z,1.17
2019-02-12T06:30:52.070Z,1.20
2019-02-12T06:33:21.220Z,0.98
2019-02-12T06:35:50.234Z,1.77
2019-02-12T06:38:18.922Z,1.17
2019-02-12T06:40:48.144Z,0.97
2019-02-12T06:43:17.110Z,1.43
2019-02-12T06:45:45.879Z,1.53
2019-02-12T06:48:14.628Z,0.73
2019-02-12T06:50:43.303Z,0.80
2019-02-12T06:53:12.871Z,1.80
2019-02-12T06:55:41.994Z,1.20
2019-02-12T06:58:10.690Z,0.93
2019-02-12T07:00:39.451Z,1.20
2019-02-12T07:03:12.642Z,0.97
2019-02-12T07:05:50.435Z,1.20
2019-02-12T07:08:34.394Z,0.73
2019-02-12T07:11:29.918Z,1.33
2019-02-12T07:14:19.254Z,1.00
2019-02-12T07:17:17.600Z,0.77
2019-02-12T07:20:16.438Z,1.12
2019-02-12T07:22:56.716Z,1.10
2019-02-12T07:26:03.301Z,0.80
2019-02-12T07:29:00.670Z,1.00
2019-02-12T07:32:10.522Z,1.30
2019-02-12T07:35:16.908Z,1.37
2019-02-12T07:38:30.326Z,1.10
2019-02-12T07:41:07.805Z,2.13
2019-02-12T07:44:11.321Z,1.43
2019-02-12T07:47:15.267Z,1.80
2019-02-12T07:50:18.713Z,2.10
2019-02-12T07:53:30.614Z,1.43
2019-02-12T07:56:36.974Z,0.97
2019-02-12T07:59:45.576Z,1.03
2019-02-12T08:02:50.031Z,0.97
2019-02-12T08:05:48.122Z,1.53
2019-02-12T08:09:10.242Z,1.07
2019-02-12T08:11:51.033Z,1.10
2019-02-12T08:14:29.644Z,0.70
2019-02-12T08:17:46.309Z,0.53
2019-02-12T08:20:52.787Z,1.07
2019-02-12T08:23:59.682Z,1.00
2019-02-12T08:26:57.379Z,0.60
2019-02-12T08:30:01.865Z,1.13
2019-02-12T08:33:06.351Z,1.13
2019-02-12T08:35:57.734Z,1.23
2019-02-12T08:38:51.335Z,1.63
2019-02-12T08:41:57.067Z,1.23
2019-02-12T08:44:59.626Z,1.40
2019-02-12T08:47:56.571Z,1.50
2019-02-12T08:50:48.875Z,1.23
2019-02-12T08:53:30.490Z,1.50
2019-02-12T08:57:07.556Z,1.00
2019-02-12T09:00:07.469Z,0.78
2019-02-12T09:03:27.819Z,1.50
2019-02-12T09:06:41.470Z,1.40
2019-02-12T09:09:45.847Z,1.30
2019-02-12T09:12:49.885Z,1.17
2019-02-12T09:15:29.434Z,1.33
2019-02-12T09:18:24.627Z,0.93
2019-02-12T09:21:20.569Z,1.73
2019-02-12T09:24:20.934Z,1.50
2019-02-12T09:27:15.166Z,1.20
2019-02-12T09:30:22.934Z,0.97
2019-02-12T09:33:15.822Z,1.42
2019-02-12T09:35:52.875Z,1.17
2019-02-12T09:38:48.982Z,1.10
2019-02-12T09:41:35.280Z,1.37
2019-02-12T09:45:06.479Z,1.17
2019-02-12T09:48:09.273Z,1.27
2019-02-12T09:50:55.134Z,1.30
2019-02-12T09:54:08.861Z,1.20
2019-02-12T09:57:15.039Z,3.47
2019-02-12T10:00:04.984Z,7.53
2019-02-12T10:03:09.042Z,5.60
2019-02-12T10:06:21.463Z,3.03
2019-02-12T10:09:29.462Z,1.30
2019-02-12T10:12:12.216Z,1.20
2019-02-12T10:15:02.817Z,1.47
2019-02-12T10:17:53.003Z,1.00
2019-02-12T10:20:35.986Z,0.73
2019-02-12T10:23:50.819Z,1.20
2019-02-12T10:26:20.258Z,0.62
2019-02-12T10:29:14.918Z,0.90
2019-02-12T10:31:43.219Z,1.43
2019-02-12T10:34:12.189Z,1.07
2019-02-12T10:36:41.056Z,1.30
2019-02-12T10:39:11.566Z,0.70
2019-02-12T10:41:40.550Z,0.63
2019-02-12T10:44:09.261Z,1.07
2019-02-12T10:46:38.209Z,0.67
2019-02-12T10:49:06.927Z,0.60
2019-02-12T10:51:35.959Z,0.97
2019-02-12T10:54:05.405Z,1.17
2019-02-12T10:56:34.110Z,0.93
2019-02-12T10:59:02.795Z,0.97
2019-02-12T11:01:31.550Z,1.30
2019-02-12T11:04:00.272Z,1.37
2019-02-12T11:06:28.944Z,1.60
2019-02-12T11:08:58.198Z,0.80
2019-02-12T11:11:26.978Z,1.00
2019-02-12T11:13:55.662Z,0.83
2019-02-12T11:16:24.630Z,0.83
2019-02-12T11:18:53.402Z,1.10
2019-02-12T11:21:22.312Z,1.07
2019-02-12T11:23:51.231Z,0.83
2019-02-12T11:26:20.003Z,1.00
2019-02-12T11:28:48.943Z,1.53
2019-02-12T11:31:17.884Z,0.70
2019-02-12T11:33:46.554Z,1.63
2019-02-12T11:36:15.235Z,1.07
2019-02-12T11:38:43.965Z,1.10
2019-02-12T11:41:12.770Z,1.30
2019-02-12T11:43:41.871Z,1.30
2019-02-12T11:46:10.630Z,0.90
2019-02-12T11:48:39.314Z,0.90
2019-02-12T11:51:08.002Z,1.30
2019-02-12T11:53:36.962Z,1.40
2019-02-12T11:56:06.843Z,0.97
2019-02-12T11:58:36.759Z,1.17
2019-02-12T12:01:08.621Z,0.87
2019-02-12T12:03:37.515Z,1.50
2019-02-12T12:06:06.246Z,1.23
2019-02-12T12:08:35.207Z,1.70
2019-02-12T12:11:04.116Z,1.43
2019-02-12T12:13:32.802Z,0.87
2019-02-12T12:16:01.482Z,1.30
2019-02-12T12:18:30.398Z,1.37
2019-02-12T12:20:59.074Z,1.60
2019-02-12T12:23:27.779Z,1.50
2019-02-12T12:25:56.506Z,1.73
2019-02-12T12:28:25.456Z,0.93
2019-02-12T12:30:54.376Z,0.90
2019-02-12T12:33:23.041Z,1.67
2019-02-12T12:35:51.954Z,1.45
2019-02-12T12:38:20.898Z,0.93
2019-02-12T12:40:49.558Z,0.90
2019-02-12T12:43:18.255Z,1.13
2019-02-12T12:45:46.972Z,1.50
2019-02-12T12:48:15.998Z,1.60
2019-02-12T12:50:44.934Z,1.27
2019-02-12T12:53:14.626Z,0.78
2019-02-12T12:55:43.525Z,1.07
2019-02-12T12:58:12.977Z,0.60
2019-02-12T13:00:42.631Z,0.90
2019-02-12T13:03:13.520Z,1.03
2019-02-12T13:05:42.519Z,0.90
2019-02-12T13:08:11.547Z,1.07
2019-02-12T13:10:40.589Z,0.73
2019-02-12T13:13:09.389Z,0.83
2019-02-12T13:15:38.089Z,0.47
2019-02-12T13:18:06.847Z,0.50
2019-02-12T13:20:35.541Z,1.03
2019-02-12T13:23:05.230Z,0.83
2019-02-12T13:25:33.899Z,1.10
2019-02-12T13:28:02.681Z,1.40
2019-02-12T13:30:31.366Z,0.93
2019-02-12T13:33:03.174Z,0.73
2019-02-12T13:35:32.081Z,1.30
2019-02-12T13:38:02.701Z,1.00
2019-02-12T13:40:31.382Z,0.70
2019-02-12T13:43:00.088Z,0.90
2019-02-12T13:45:29.361Z,1.70
2019-02-12T13:47:58.151Z,3.13
2019-02-12T13:50:27.134Z,1.70
2019-02-12T13:52:56.086Z,0.67
2019-02-12T13:55:24.927Z,1.27
2019-02-12T13:57:53.770Z,0.80
2019-02-12T14:00:23.954Z,1.10
2019-02-12T14:02:52.650Z,0.63
2019-02-12T14:05:21.477Z,1.20
2019-02-12T14:07:50.192Z,1.43
2019-02-12T14:10:18.851Z,1.10
2019-02-12T14:12:47.515Z,0.83
2019-02-12T14:15:16.220Z,0.73
2019-02-12T14:17:44.890Z,1.23
2019-02-12T14:20:14.100Z,1.23
2019-02-12T14:22:42.742Z,1.13
2019-02-12T14:25:11.782Z,1.03
2019-02-12T14:27:40.785Z,1.47
2019-02-12T14:30:11.499Z,0.80
2019-02-12T14:32:40.727Z,1.43
2019-02-12T14:35:10.192Z,1.10
2019-02-12T14:37:38.944Z,1.50
2019-02-12T14:40:08.995Z,1.00
2019-02-12T14:42:38.065Z,1.10
2019-02-12T14:45:08.479Z,1.17
2019-02-12T14:47:38.299Z,1.00
2019-02-12T14:50:08.434Z,1.00
2019-02-12T14:52:37.318Z,0.97
2019-02-12T14:55:06.118Z,1.57
2019-02-12T14:57:35.314Z,1.00
2019-02-12T15:00:04.360Z,1.97
2019-02-12T15:02:33.178Z,0.97
2019-02-12T15:05:02.157Z,1.30
2019-02-12T15:07:31.103Z,1.60
2019-02-12T15:09:59.766Z,1.57
2019-02-12T15:12:28.681Z,1.70
2019-02-12T15:14:57.362Z,1.80
2019-02-12T15:17:26.074Z,1.53
2019-02-12T15:19:55.140Z,1.27
2019-02-12T15:22:26.055Z,1.53
2019-02-12T15:24:54.776Z,1.00
2019-02-12T15:27:24.006Z,0.87
2019-02-12T15:29:53.528Z,0.77
2019-02-12T15:32:22.699Z,0.90
2019-02-12T15:34:52.478Z,0.83
2019-02-12T15:37:22.253Z,0.80
2019-02-12T15:39:50.908Z,1.40
2019-02-12T15:42:24.450Z,1.07
2019-02-12T15:44:53.341Z,1.07
2019-02-12T15:47:23.545Z,3.03
2019-02-12T15:49:52.681Z,1.60
2019-02-12T15:52:21.569Z,0.90
2019-02-12T15:54:50.218Z,1.37
2019-02-12T15:57:18.957Z,1.23
2019-02-12T15:59:49.735Z,1.20
2019-02-12T16:02:21.254Z,1.83
2019-02-12T16:04:50.225Z,2.00
2019-02-12T16:07:20.406Z,1.47
2019-02-12T16:09:49.942Z,1.30
2019-02-12T16:12:20.157Z,1.40
2019-02-12T16:14:48.818Z,1.03
2019-02-12T16:17:17.538Z,1.80
2019-02-12T16:19:47.016Z,1.27
2019-02-12T16:22:21.858Z,1.60
2019-02-12T16:24:50.530Z,1.10
2019-02-12T16:27:21.487Z,1.97
2019-02-12T16:29:49.608Z,1.93
2019-02-12T16:32:21.037Z,1.40
2019-02-12T16:34:49.749Z,1.60
2019-02-12T16:37:18.507Z,1.67
2019-02-12T16:39:47.403Z,1.43
2019-02-12T16:42:18.993Z,1.50
2019-02-12T16:44:47.690Z,1.70
2019-02-12T16:47:16.657Z,1.20
2019-02-12T16:49:45.694Z,1.57
2019-02-12T16:52:20.663Z,1.03
2019-02-12T16:54:45.236Z,1.40
2019-02-12T16:57:13.978Z,1.50
2019-02-12T16:59:42.628Z,1.70
2019-02-12T17:02:11.526Z,1.30
2019-02-12T17:04:40.198Z,1.73
2019-02-12T17:07:09.150Z,1.27
2019-02-12T17:09:38.067Z,2.07
2019-02-12T17:12:08.446Z,1.60
2019-02-12T17:14:37.350Z,1.63
2019-02-12T17:17:06.283Z,1.60
2019-02-12T17:19:35.032Z,0.97
2019-02-12T17:22:03.874Z,2.33
2019-02-12T17:24:32.529Z,1.37
2019-02-12T17:27:01.201Z,1.53
2019-02-12T17:29:30.236Z,2.40
2019-02-12T17:31:59.141Z,1.30
2019-02-12T17:34:27.874Z,1.70
2019-02-12T17:36:56.763Z,1.83
2019-02-12T17:39:25.967Z,1.17
2019-02-12T17:41:54.659Z,1.93
2019-02-12T17:44:23.379Z,2.10
2019-02-12T17:46:52.138Z,1.43
2019-02-12T17:49:22.313Z,1.57
2019-02-12T17:51:51.311Z,1.83
2019-02-12T17:54:23.729Z,2.10
2019-02-12T17:56:52.645Z,1.73
2019-02-12T17:59:21.621Z,1.20
2019-02-12T18:01:50.263Z,1.50
2019-02-12T18:04:18.974Z,1.10
2019-02-12T18:06:47.888Z,1.73
2019-02-12T18:09:19.019Z,2.37
2019-02-12T18:11:47.799Z,2.27
2019-02-12T18:14:16.485Z,1.93
2019-02-12T18:16:45.133Z,1.47
2019-02-12T18:19:13.833Z,1.83
2019-02-12T18:21:42.780Z,2.43
2019-02-12T18:24:11.754Z,1.57
2019-02-12T18:26:40.711Z,2.50
2019-02-12T18:29:09.381Z,1.97
2019-02-12T18:31:38.061Z,1.83
2019-02-12T18:34:06.732Z,2.27
2019-02-12T18:36:35.952Z,3.93
2019-02-12T18:39:06.498Z,4.00
2019-02-12T18:41:35.374Z,2.57
2019-02-12T18:44:04.464Z,2.70
2019-02-12T18:46:33.460Z,3.53
2019-02-12T18:49:02.222Z,3.40
2019-02-12T18:51:30.930Z,2.57
2019-02-12T18:53:59.626Z,2.47
2019-02-12T18:56:28.366Z,2.23
2019-02-12T18:58:57.270Z,1.97
2019-02-12T19:01:25.960Z,2.97
2019-02-12T19:03:54.888Z,1.67
2019-02-12T19:06:23.692Z,2.57
2019-02-12T19:08:52.376Z,2.50
2019-02-12T19:11:21.315Z,2.33
2019-02-12T19:13:50.110Z,2.60
2019-02-12T19:16:19.106Z,2.17
2019-02-12T19:18:47.831Z,2.30
2019-02-12T19:21:16.886Z,2.20
2019-02-12T19:23:46.146Z,2.20
2019-02-12T19:26:15.070Z,2.10
2019-02-12T19:28:43.741Z,1.93
2019-02-12T19:31:12.394Z,2.43
2019-02-12T19:33:41.395Z,2.63
2019-02-12T19:36:10.499Z,2.33
2019-02-12T19:38:39.306Z,2.73
2019-02-12T19:41:08.789Z,2.20
2019-02-12T19:43:37.814Z,2.72
2019-02-12T19:46:06.518Z,3.27
2019-02-12T19:48:35.221Z,1.93
2019-02-12T19:51:04.074Z,2.03
2019-02-12T19:53:32.979Z,2.60
2019-02-12T19:56:01.672Z,2.10
2019-02-12T19:58:30.577Z,2.17
2019-02-12T20:00:59.230Z,2.73
2019-02-12T20:03:31.245Z,2.23
2019-02-12T20:06:00.242Z,2.63
2019-02-12T20:08:28.926Z,1.60
2019-02-12T20:10:57.628Z,2.63
2019-02-12T20:13:27.019Z,2.30
2019-02-12T20:15:55.996Z,2.03
2019-02-12T20:18:25.035Z,2.37
2019-02-12T20:20:53.758Z,2.73
2019-02-12T20:23:22.710Z,2.30
2019-02-12T20:25:51.425Z,1.70
2019-02-12T20:28:22.792Z,2.73
2019-02-12T20:30:52.614Z,2.77
2019-02-12T20:33:21.498Z,2.60
2019-02-12T20:35:50.544Z,3.27
2019-02-12T20:38:21.925Z,3.40
2019-02-12T20:40:53.991Z,2.00
2019-02-12T20:43:29.462Z,9.37
2019-02-12T20:45:58.221Z,4.60
2019-02-12T20:48:27.001Z,2.27
2019-02-12T20:50:55.694Z,2.37
2019-02-12T20:53:24.578Z,2.37
2019-02-12T20:55:53.302Z,2.53
2019-02-12T20:58:21.966Z,1.87
2019-02-12T21:00:50.632Z,2.23
2019-02-12T21:03:19.352Z,2.70
2019-02-12T21:05:48.346Z,2.47
2019-02-12T21:08:17.326Z,2.40
2019-02-12T21:10:46.346Z,2.53
2019-02-12T21:13:15.474Z,2.07
2019-02-12T21:15:45.050Z,2.10
2019-02-12T21:18:13.827Z,2.10
2019-02-12T21:20:43.985Z,2.07
2019-02-12T21:23:12.661Z,2.30
2019-02-12T21:25:41.362Z,2.00
2019-02-12T21:28:10.107Z,2.93
2019-02-12T21:30:39.139Z,2.27
2019-02-12T21:33:07.928Z,2.20
2019-02-12T21:35:36.642Z,2.47
2019-02-12T21:38:07.016Z,2.80
2019-02-12T21:40:35.743Z,2.50
2019-02-12T21:43:04.559Z,2.77
2019-02-12T21:45:33.237Z,2.13
2019-02-12T21:48:02.010Z,2.47
2019-02-12T21:50:33.714Z,3.00
2019-02-12T21:53:06.962Z,2.30
2019-02-12T21:55:33.040Z,2.63
2019-02-12T21:58:01.715Z,5.07
2019-02-12T22:00:31.110Z,2.70
2019-02-12T22:03:00.222Z,2.80
2019-02-12T22:05:28.904Z,2.33
2019-02-12T22:07:57.798Z,5.80
2019-02-12T22:10:26.561Z,2.40
2019-02-12T22:12:55.217Z,2.60
2019-02-12T22:15:23.970Z,2.53
2019-02-12T22:17:53.135Z,2.40
2019-02-12T22:20:25.497Z,2.33
2019-02-12T22:22:54.241Z,2.40
2019-02-12T22:25:22.970Z,2.67
2019-02-12T22:27:51.639Z,2.90
2019-02-12T22:30:20.852Z,1.53
2019-02-12T22:32:49.583Z,2.37
2019-02-12T22:35:18.519Z,2.53
2019-02-12T22:37:47.487Z,2.00
2019-02-12T22:40:16.377Z,1.97
2019-02-12T22:42:45.340Z,2.00
2019-02-12T22:45:20.187Z,2.37
2019-02-12T22:47:50.246Z,2.65
2019-02-12T22:50:18.954Z,2.73
2019-02-12T22:52:47.929Z,3.20
2019-02-12T22:55:16.642Z,3.20
2019-02-12T22:57:49.357Z,2.53
2019-02-12T23:00:45.660Z,3.80
2019-02-12T23:03:14.490Z,3.20
2019-02-12T23:05:43.485Z,2.97
2019-02-12T23:08:12.331Z,2.77
2019-02-12T23:10:41.070Z,3.70
2019-02-12T23:13:10.234Z,2.60
2019-02-12T23:15:39.003Z,3.20
2019-02-12T23:18:07.670Z,3.43
2019-02-12T23:20:36.721Z,4.00
2019-02-12T23:23:05.536Z,3.55
2019-02-12T23:25:34.686Z,4.80
2019-02-12T23:28:03.647Z,3.87
2019-02-12T23:30:32.551Z,5.00
2019-02-12T23:33:01.219Z,4.33
2019-02-12T23:35:29.887Z,4.90
2019-02-12T23:37:58.590Z,4.57
2019-02-12T23:40:30.008Z,5.07
2019-02-12T23:42:58.695Z,5.30
2019-02-12T23:45:27.374Z,5.30
2019-02-12T23:47:56.033Z,6.50
2019-02-12T23:50:24.953Z,6.37
2019-02-12T23:52:53.676Z,6.97
2019-02-12T23:55:22.587Z,5.67
2019-02-12T23:57:51.244Z,7.10
